createdAt,value
2019-05-03T00:03:26.156Z,14.17
2019-05-03T00:08:21.750Z,14.20
2019-05-03T00:13:15.884Z,15.07
2019-05-03T00:18:11.674Z,16.43
2019-05-03T00:23:05.747Z,17.90
2019-05-03T00:28:01.731Z,19.10
2019-05-03T00:32:55.608Z,18.73
2019-05-03T00:37:52.596Z,18.80
2019-05-03T00:42:46.767Z,17.57
2019-05-03T00:47:42.165Z,17.23
2019-05-03T00:52:36.251Z,17.83
2019-05-03T00:57:32.095Z,18.33
2019-05-03T01:02:26.368Z,18.47
2019-05-03T01:07:22.241Z,17.40
2019-05-03T01:12:16.408Z,17.77
2019-05-03T01:17:11.777Z,17.73
2019-05-03T01:22:05.982Z,17.57
2019-05-03T01:27:01.936Z,17.53
2019-05-03T01:31:56.042Z,17.27
2019-05-03T01:36:51.764Z,16.97
2019-05-03T01:41:45.888Z,15.83
2019-05-03T01:46:39.837Z,16.70
2019-05-03T01:51:42.071Z,16.87
2019-05-03T01:56:36.073Z,16.27
2019-05-03T02:01:51.580Z,17.33
2019-05-03T02:06:45.840Z,17.80
2019-05-03T02:11:41.983Z,17.53
2019-05-03T02:16:35.683Z,16.57
2019-05-03T02:21:29.667Z,16.50
2019-05-03T02:26:23.647Z,15.07
2019-05-03T02:31:17.597Z,15.83
2019-05-03T02:36:13.655Z,15.97
2019-05-03T02:41:07.409Z,15.17
2019-05-03T02:46:20.105Z,12.93
2019-05-03T02:51:15.639Z,12.20
2019-05-03T02:56:21.074Z,10.20
2019-05-03T03:01:06.661Z,9.37
2019-05-03T03:06:02.601Z,8.50
2019-05-03T03:11:00.381Z,8.37
2019-05-03T03:15:56.142Z,7.33
2019-05-03T03:20:51.812Z,7.13
2019-05-03T03:25:46.911Z,6.93
2019-05-03T03:31:01.408Z,6.33
2019-05-03T03:36:01.132Z,6.20
2019-05-03T03:40:55.319Z,6.00
2019-05-03T03:45:49.202Z,6.10
2019-05-03T03:50:45.749Z,6.40
2019-05-03T03:55:42.566Z,6.00
2019-05-03T04:00:36.656Z,6.43
2019-05-03T04:05:30.773Z,6.83
2019-05-03T04:10:26.252Z,7.17
2019-05-03T04:15:26.039Z,6.90
2019-05-03T04:20:25.747Z,6.67
2019-05-03T04:25:20.731Z,7.03
2019-05-03T04:30:16.564Z,8.00
2019-05-03T04:35:10.782Z,7.97
2019-05-03T04:40:06.241Z,9.33
2019-05-03T04:45:00.395Z,9.23
2019-05-03T04:49:55.525Z,10.90
2019-05-03T04:54:51.630Z,12.03
2019-05-03T04:59:45.597Z,12.70
2019-05-03T05:04:39.653Z,12.30
2019-05-03T05:09:34.899Z,12.37
2019-05-03T05:14:29.100Z,7.97
2019-05-03T05:19:25.460Z,6.43
2019-05-03T05:24:19.602Z,5.73
2019-05-03T05:29:25.345Z,4.83
2019-05-03T05:34:19.593Z,4.03
2019-05-03T05:39:18.473Z,3.97
2019-05-03T05:44:11.422Z,4.07
2019-05-03T05:49:07.420Z,4.00
2019-05-03T05:54:01.399Z,3.83
2019-05-03T05:59:04.479Z,4.07
2019-05-03T06:03:58.477Z,4.60
2019-05-03T06:08:54.803Z,4.60
2019-05-03T06:13:56.763Z,4.43
2019-05-03T06:18:54.388Z,4.63
2019-05-03T06:23:53.190Z,4.70
2019-05-03T06:28:47.157Z,4.37
2019-05-03T06:33:41.127Z,4.60
2019-05-03T06:38:35.090Z,5.00
2019-05-03T06:43:29.048Z,4.63
2019-05-03T06:48:27.969Z,5.00
2019-05-03T06:53:19.115Z,5.00
2019-05-03T06:58:15.183Z,4.90
2019-05-03T07:03:10.865Z,5.37
2019-05-03T07:08:12.682Z,7.03
2019-05-03T07:13:08.919Z,6.33
2019-05-03T07:18:02.706Z,6.50
2019-05-03T07:22:56.704Z,5.87
2019-05-03T07:27:50.758Z,5.10
2019-05-03T07:32:46.644Z,4.13
2019-05-03T07:37:40.591Z,3.60
2019-05-03T07:42:34.796Z,2.83
2019-05-03T07:47:28.800Z,3.00
2019-05-03T07:52:22.810Z,3.30
2019-05-03T07:57:30.995Z,2.73
2019-05-03T08:02:27.263Z,3.30
2019-05-03T08:07:23.097Z,3.63
2019-05-03T08:12:16.791Z,3.50
2019-05-03T08:17:10.763Z,3.40
2019-05-03T08:22:05.133Z,3.53
2019-05-03T08:26:59.260Z,3.47
2019-05-03T08:31:57.857Z,3.10
2019-05-03T08:36:56.448Z,3.60
2019-05-03T08:41:55.467Z,2.97
2019-05-03T08:46:49.577Z,3.60
2019-05-03T08:51:44.383Z,2.43
2019-05-03T08:56:38.439Z,2.37
2019-05-03T09:01:32.419Z,2.33
2019-05-03T09:06:26.580Z,2.33
2019-05-03T09:11:30.731Z,2.23
2019-05-03T09:16:16.792Z,2.27
2019-05-03T09:21:11.000Z,2.57
2019-05-03T09:26:05.134Z,2.57
2019-05-03T09:30:59.181Z,2.47
2019-05-03T09:35:54.994Z,2.30
2019-05-03T09:40:51.846Z,2.00
2019-05-03T09:45:45.774Z,2.03
2019-05-03T09:50:39.916Z,2.43
2019-05-03T09:55:39.055Z,2.37
2019-05-03T10:00:33.137Z,2.67
2019-05-03T10:05:27.254Z,2.50
2019-05-03T10:10:21.317Z,2.67
2019-05-03T10:15:37.361Z,2.87
2019-05-03T10:20:31.419Z,2.90
2019-05-03T10:25:25.537Z,3.03
2019-05-03T10:30:24.148Z,3.00
2019-05-03T10:35:19.162Z,3.10
2019-05-03T10:40:16.993Z,3.20
2019-05-03T10:45:11.164Z,2.85
2019-05-03T10:50:05.437Z,2.80
2019-05-03T10:54:59.424Z,2.70
2019-05-03T10:59:55.442Z,2.50
2019-05-03T11:04:49.467Z,2.80
2019-05-03T11:09:49.844Z,2.95
2019-05-03T11:14:39.635Z,2.72
2019-05-03T11:19:34.775Z,2.90
2019-05-03T11:24:29.014Z,2.80
2019-05-03T11:29:24.760Z,2.60
2019-05-03T11:34:22.713Z,2.30
2019-05-03T11:39:16.921Z,2.80
2019-05-03T11:44:29.508Z,2.60
2019-05-03T11:49:25.376Z,2.60
2019-05-03T11:54:19.416Z,2.85
2019-05-03T11:59:14.775Z,2.37
2019-05-03T12:04:08.790Z,3.12
2019-05-03T12:09:05.629Z,2.70
2019-05-03T12:14:12.643Z,2.90
2019-05-03T12:19:16.531Z,2.70
2019-05-03T12:24:06.214Z,3.00
2019-05-03T12:28:59.185Z,2.95
2019-05-03T12:33:55.045Z,2.80
2019-05-03T12:38:49.127Z,3.15
2019-05-03T12:43:43.171Z,2.90
2019-05-03T12:48:37.174Z,3.30
2019-05-03T12:53:32.355Z,2.87
2019-05-03T12:58:28.251Z,3.20
2019-05-03T13:03:30.224Z,3.60
2019-05-03T13:08:35.240Z,3.20
2019-05-03T13:13:29.578Z,3.52
2019-05-03T13:18:25.245Z,3.50
2019-05-03T13:23:19.645Z,3.70
2019-05-03T13:28:15.301Z,3.67
2019-05-03T13:33:09.662Z,3.90
2019-05-03T13:38:03.643Z,3.58
2019-05-03T13:43:03.581Z,3.55
2019-05-03T13:47:55.266Z,3.20
2019-05-03T13:52:49.439Z,3.67
2019-05-03T13:57:45.826Z,4.45
2019-05-03T14:02:39.605Z,3.98
2019-05-03T14:07:35.327Z,4.17
2019-05-03T14:12:29.638Z,4.25
2019-05-03T14:17:25.415Z,3.75
2019-05-03T14:22:21.330Z,4.15
2019-05-03T14:27:17.129Z,4.47
2019-05-03T14:32:11.306Z,4.45
2019-05-03T14:37:05.258Z,4.28
2019-05-03T14:41:59.250Z,4.62
2019-05-03T14:46:56.651Z,4.37
2019-05-03T14:51:49.290Z,4.50
2019-05-03T14:56:50.982Z,4.60
2019-05-03T15:01:55.157Z,4.73
2019-05-03T15:06:48.963Z,4.90
2019-05-03T15:11:42.927Z,4.80
2019-05-03T15:16:37.435Z,5.17
2019-05-03T15:21:31.408Z,4.87
2019-05-03T15:26:25.555Z,4.90
2019-05-03T15:31:19.532Z,4.50
2019-05-03T15:36:15.429Z,4.77
2019-05-03T15:41:09.615Z,4.00
2019-05-03T15:46:20.812Z,4.00
2019-05-03T15:51:15.131Z,4.03
2019-05-03T15:56:09.300Z,3.93
2019-05-03T16:01:04.697Z,4.40
2019-05-03T16:05:58.993Z,4.55
2019-05-03T16:10:54.717Z,4.83
2019-05-03T16:15:48.832Z,4.90
2019-05-03T16:20:44.924Z,4.33
2019-05-03T16:25:38.933Z,4.27
2019-05-03T16:30:36.595Z,4.10
2019-05-03T16:35:30.718Z,5.10
2019-05-03T16:40:25.245Z,4.80
2019-05-03T16:45:19.519Z,4.93
2019-05-03T16:50:14.508Z,4.47
2019-05-03T16:55:09.010Z,5.03
2019-05-03T17:00:05.750Z,5.00
2019-05-03T17:05:07.834Z,4.80
2019-05-03T17:10:17.620Z,5.43
2019-05-03T17:15:12.142Z,6.17
2019-05-03T17:20:07.617Z,5.97
2019-05-03T17:25:04.309Z,5.83
2019-05-03T17:29:58.789Z,4.73
2019-05-03T17:34:54.708Z,5.27
2019-05-03T17:40:05.834Z,4.73
2019-05-03T17:44:59.845Z,6.30
2019-05-03T17:49:54.682Z,4.77
2019-05-03T17:54:50.659Z,5.65
2019-05-03T17:59:46.586Z,6.20
2019-05-03T18:04:42.488Z,5.10
2019-05-03T18:09:38.399Z,4.93
2019-05-03T18:14:34.365Z,5.13
2019-05-03T18:19:28.418Z,5.27
2019-05-03T18:24:22.410Z,5.00
2019-05-03T18:29:16.392Z,5.73
2019-05-03T18:34:18.917Z,6.00
2019-05-03T18:39:06.696Z,6.00
2019-05-03T18:44:14.923Z,5.87
2019-05-03T18:49:09.001Z,6.17
2019-05-03T18:54:05.356Z,6.40
2019-05-03T18:58:59.117Z,6.53
2019-05-03T19:03:55.480Z,6.73
2019-05-03T19:09:08.162Z,6.27
2019-05-03T19:14:04.690Z,7.00
2019-05-03T19:18:59.143Z,6.53
2019-05-03T19:23:53.190Z,6.47
2019-05-03T19:28:47.228Z,6.23
2019-05-03T19:33:41.341Z,6.27
2019-05-03T19:38:35.405Z,6.20
2019-05-03T19:43:29.430Z,6.03
2019-05-03T19:48:25.444Z,6.37
2019-05-03T19:53:27.263Z,6.30
2019-05-03T19:58:21.463Z,6.07
2019-05-03T20:03:20.328Z,5.93
2019-05-03T20:08:25.176Z,5.67
2019-05-03T20:13:31.754Z,6.37
2019-05-03T20:18:17.834Z,6.13
2019-05-03T20:23:10.981Z,6.10
2019-05-03T20:28:05.086Z,6.20
2019-05-03T20:32:59.079Z,6.93
2019-05-03T20:37:55.197Z,7.00
2019-05-03T20:42:54.369Z,7.80
2019-05-03T20:47:56.649Z,7.33
2019-05-03T20:52:50.762Z,8.43
2019-05-03T20:57:44.770Z,8.73
2019-05-03T21:02:50.529Z,9.63
2019-05-03T21:07:35.190Z,9.50
2019-05-03T21:12:31.394Z,9.40
2019-05-03T21:17:36.013Z,10.27
2019-05-03T21:22:31.415Z,10.20
2019-05-03T21:27:25.385Z,11.27
2019-05-03T21:32:19.647Z,11.53
2019-05-03T21:37:15.146Z,12.20
2019-05-03T21:42:09.175Z,12.60
2019-05-03T21:47:15.268Z,13.53
2019-05-03T21:52:09.492Z,14.73
2019-05-03T21:57:03.568Z,15.33
2019-05-03T22:01:57.948Z,15.47
2019-05-03T22:06:52.025Z,14.67
2019-05-03T22:11:46.011Z,14.53
2019-05-03T22:16:45.166Z,13.77
2019-05-03T22:21:55.164Z,9.00
2019-05-03T22:26:54.007Z,9.23
2019-05-03T22:31:48.205Z,8.47
2019-05-03T22:36:44.270Z,8.57
2019-05-03T22:41:38.118Z,8.13
2019-05-03T22:46:32.182Z,9.13
2019-05-03T22:51:26.283Z,11.07
2019-05-03T22:56:20.240Z,11.80
2019-05-03T23:01:16.432Z,11.10
2019-05-03T23:06:20.273Z,12.33
2019-05-03T23:11:06.955Z,12.27
2019-05-03T23:16:00.915Z,11.40
2019-05-03T23:21:05.542Z,12.03
2019-05-03T23:25:59.552Z,12.53
2019-05-03T23:30:54.833Z,11.80
2019-05-03T23:35:48.893Z,12.53
2019-05-03T23:40:44.672Z,12.77
2019-05-03T23:45:39.028Z,12.70
2019-05-03T23:50:32.992Z,13.50
2019-05-03T23:55:31.652Z,12.60
